Time;durP1;ratioP1;P1;durP2;ratioP2;P2;SDS_P1;SDS_P2;PMS_P1;PMS_P2;Temp;Humidity;BMP_temperature;BMP_pressure;BME280_temperature;BME280_humidity;BME280_pressure;Samples;Min_cycle;Max_cycle;Signal;HPM_P1;HPM_P2
2023/12/23 00:02:06;;;;;;;1.40;0.70;;;8.00;99.90;;;;;;5034986;28;20214;-40
2023/12/23 00:04:32;;;;;;;3.33;1.10;;;8.00;99.90;;;;;;5035760;28;20206;-42
2023/12/23 00:06:57;;;;;;;0.87;0.73;;;8.00;99.90;;;;;;5023529;28;20281;-40
2023/12/23 00:09:23;;;;;;;2.43;0.80;;;8.00;99.90;;;;;;5046789;28;20202;-38
2023/12/23 00:11:50;;;;;;;1.97;0.70;;;8.00;99.90;;;;;;5039463;28;20209;-44
2023/12/23 00:14:16;;;;;;;1.53;0.60;;;8.00;99.90;;;;;;5039521;28;20188;-41
2023/12/23 00:16:42;;;;;;;2.27;0.90;;;8.10;99.90;;;;;;5024456;28;20173;-35
2023/12/23 00:19:09;;;;;;;1.27;0.60;;;8.00;99.90;;;;;;5039490;28;20177;-37
2023/12/23 00:21:37;;;;;;;2.20;0.80;;;8.00;99.90;;;;;;5029456;28;20222;-38
2023/12/23 00:24:03;;;;;;;1.73;0.70;;;8.10;99.90;;;;;;5036159;28;20186;-37
2023/12/23 00:26:29;;;;;;;2.20;0.80;;;8.00;99.90;;;;;;5059711;28;20182;-42
2023/12/23 00:28:54;;;;;;;2.40;0.80;;;8.00;99.90;;;;;;5041001;28;20189;-39
2023/12/23 00:31:20;;;;;;;1.43;1.00;;;8.00;99.90;;;;;;5034964;28;20205;-38
2023/12/23 00:33:48;;;;;;;1.13;0.60;;;8.00;99.90;;;;;;5030409;28;20193;-38
2023/12/23 00:36:14;;;;;;;1.23;0.70;;;7.90;99.90;;;;;;5019265;28;20185;-39
2023/12/23 00:38:40;;;;;;;2.17;0.90;;;8.00;99.90;;;;;;5054878;28;20237;-39
2023/12/23 00:41:06;;;;;;;1.77;0.80;;;7.90;99.90;;;;;;5030746;28;20312;-37
2023/12/23 00:43:31;;;;;;;3.17;1.00;;;7.90;99.90;;;;;;5037457;28;20287;-38
2023/12/23 00:45:57;;;;;;;2.33;0.80;;;7.90;99.90;;;;;;5035050;28;20236;-44
2023/12/23 00:48:26;;;;;;;1.60;0.77;;;7.90;99.90;;;;;;5018744;28;20174;-39
2023/12/23 00:50:51;;;;;;;4.00;1.10;;;7.90;99.90;;;;;;5019197;28;20188;-39
2023/12/23 00:53:17;;;;;;;2.67;1.23;;;7.90;99.90;;;;;;5018463;28;20201;-41
2023/12/23 00:55:43;;;;;;;2.53;0.90;;;7.90;99.90;;;;;;5041268;28;20188;-43
2023/12/23 00:58:09;;;;;;;1.57;0.77;;;7.80;99.90;;;;;;5040816;28;20227;-39
2023/12/23 01:00:35;;;;;;;4.17;0.90;;;7.80;99.90;;;;;;5030147;28;20170;-38
2023/12/23 01:03:02;;;;;;;1.90;1.00;;;7.80;99.90;;;;;;5034480;28;20279;-39
2023/12/23 01:05:28;;;;;;;3.40;1.40;;;7.80;99.90;;;;;;5018387;28;20205;-40
2023/12/23 01:07:54;;;;;;;2.87;1.10;;;7.80;99.90;;;;;;5034862;28;20170;-45
2023/12/23 01:10:24;;;;;;;3.60;1.00;;;7.80;99.90;;;;;;5024459;28;20188;-44
2023/12/23 01:12:50;;;;;;;2.43;1.30;;;7.80;99.90;;;;;;5054246;28;20204;-42
2023/12/23 01:15:15;;;;;;;2.17;0.80;;;7.80;99.90;;;;;;5022167;28;20199;-43
2023/12/23 01:17:41;;;;;;;4.70;1.40;;;7.70;99.90;;;;;;5038292;28;20181;-42
2023/12/23 01:20:08;;;;;;;2.93;1.03;;;7.70;99.90;;;;;;5041794;28;20224;-36
2023/12/23 01:22:34;;;;;;;1.90;0.90;;;7.80;99.90;;;;;;5024586;28;20201;-40
2023/12/23 01:24:59;;;;;;;1.77;0.87;;;7.70;99.90;;;;;;5034032;28;20327;-44
2023/12/23 01:27:26;;;;;;;3.13;1.00;;;7.80;99.90;;;;;;5032447;28;20174;-44
2023/12/23 01:29:52;;;;;;;1.97;1.20;;;7.70;99.90;;;;;;5035758;28;20184;-44
2023/12/23 01:32:18;;;;;;;3.33;1.23;;;7.70;99.90;;;;;;5018165;28;20237;-44
2023/12/23 01:34:44;;;;;;;1.60;0.83;;;7.70;99.90;;;;;;5019635;28;20206;-45
2023/12/23 01:37:10;;;;;;;2.10;0.90;;;7.70;99.90;;;;;;5022797;28;20271;-45
2023/12/23 01:39:36;;;;;;;3.90;1.20;;;7.70;99.90;;;;;;5017953;28;20293;-44
2023/12/23 01:42:02;;;;;;;1.80;0.90;;;7.70;99.90;;;;;;5017810;28;20288;-43
2023/12/23 01:44:28;;;;;;;2.07;1.10;;;7.70;99.90;;;;;;5062708;28;20351;-44
2023/12/23 01:46:55;;;;;;;3.83;1.20;;;7.70;99.90;;;;;;5033679;28;20267;-44
2023/12/23 01:49:22;;;;;;;3.30;1.30;;;7.70;99.90;;;;;;5028714;28;20177;-44
2023/12/23 01:51:49;;;;;;;2.67;1.13;;;7.60;99.90;;;;;;5033999;28;20198;-44
2023/12/23 01:54:15;;;;;;;5.30;1.40;;;7.60;99.90;;;;;;5027116;28;20181;-44
2023/12/23 01:56:42;;;;;;;3.80;1.20;;;7.60;99.90;;;;;;5045752;28;20181;-44
2023/12/23 01:59:08;;;;;;;3.60;1.47;;;7.60;99.90;;;;;;5037523;28;20265;-43
2023/12/23 02:01:34;;;;;;;2.10;1.20;;;7.60;99.90;;;;;;5042738;28;20289;-44
2023/12/23 02:04:00;;;;;;;2.30;1.20;;;7.60;99.90;;;;;;5047809;28;20173;-44
2023/12/23 02:06:26;;;;;;;5.07;1.40;;;7.60;99.90;;;;;;5037832;28;20288;-43
2023/12/23 02:08:52;;;;;;;2.30;0.97;;;7.60;99.90;;;;;;5022947;28;20277;-38
2023/12/23 02:11:39;;;;;;;4.77;1.50;;;7.60;99.90;;;;;;5029957;28;20190;-32
2023/12/23 02:14:12;;;;;;;4.40;1.30;;;7.60;99.90;;;;;;5035886;28;20217;-44
2023/12/23 02:16:38;;;;;;;1.03;0.90;;;7.60;99.90;;;;;;5037550;28;20188;-44
2023/12/23 02:19:04;;;;;;;2.07;0.70;;;7.70;99.90;;;;;;5053924;28;20181;-44
2023/12/23 02:21:30;;;;;;;3.40;1.10;;;7.60;99.90;;;;;;5037062;28;20757;-44
2023/12/23 02:23:56;;;;;;;2.60;1.00;;;7.60;99.90;;;;;;5044667;28;20177;-44
2023/12/23 02:26:25;;;;;;;2.37;1.27;;;7.60;99.90;;;;;;5045219;28;20197;-44
2023/12/23 02:28:52;;;;;;;1.50;0.80;;;7.60;99.90;;;;;;5037267;28;20226;-43
2023/12/23 02:31:21;;;;;;;2.00;0.93;;;7.60;99.90;;;;;;5045575;28;20201;-43
2023/12/23 02:33:48;;;;;;;1.40;0.73;;;7.60;99.90;;;;;;5033206;28;20632;-44
2023/12/23 02:36:20;;;;;;;1.87;0.80;;;7.50;99.90;;;;;;5024329;28;20189;-43
2023/12/23 02:38:47;;;;;;;1.00;0.53;;;7.50;99.90;;;;;;5036100;28;20198;-44
2023/12/23 02:41:12;;;;;;;1.40;0.60;;;7.50;99.90;;;;;;5025326;28;20232;-44
2023/12/23 02:43:38;;;;;;;1.70;0.80;;;7.60;99.90;;;;;;5026918;28;20194;-45
2023/12/23 02:46:04;;;;;;;0.60;0.40;;;7.50;99.90;;;;;;5049838;28;20299;-44
2023/12/23 02:48:30;;;;;;;3.23;0.70;;;7.60;99.90;;;;;;5033600;28;20178;-42
2023/12/23 02:50:55;;;;;;;1.80;0.40;;;7.60;99.90;;;;;;5042012;28;20184;-44
2023/12/23 02:53:21;;;;;;;0.80;0.60;;;7.60;99.90;;;;;;5025547;28;20178;-44
2023/12/23 02:55:47;;;;;;;0.40;0.40;;;7.60;99.90;;;;;;5046638;28;20186;-44
2023/12/23 02:58:13;;;;;;;0.70;0.40;;;7.60;99.90;;;;;;5032866;28;20182;-44
2023/12/23 03:00:39;;;;;;;0.90;0.60;;;7.60;99.90;;;;;;5040465;28;20178;-44
2023/12/23 03:03:04;;;;;;;0.70;0.40;;;7.60;99.90;;;;;;5037120;28;20205;-44
2023/12/23 03:05:30;;;;;;;1.83;0.50;;;7.60;99.90;;;;;;5032071;28;20201;-44
2023/12/23 03:07:56;;;;;;;0.30;0.30;;;7.50;99.90;;;;;;5036759;28;20189;-44
2023/12/23 03:10:22;;;;;;;1.50;0.50;;;7.50;99.90;;;;;;5044891;28;20257;-44
2023/12/23 03:12:48;;;;;;;0.30;0.30;;;7.50;99.90;;;;;;5036389;28;20202;-40
2023/12/23 03:15:14;;;;;;;2.13;0.60;;;7.50;99.90;;;;;;5036648;28;20269;-44
2023/12/23 03:17:39;;;;;;;1.27;0.50;;;7.50;99.90;;;;;;5025366;28;20181;-43
2023/12/23 03:20:06;;;;;;;1.03;0.43;;;7.50;99.90;;;;;;5047279;28;20193;-44
2023/12/23 03:22:32;;;;;;;0.63;0.40;;;7.50;99.90;;;;;;5032059;28;20201;-44
2023/12/23 03:24:58;;;;;;;0.87;0.43;;;7.50;99.90;;;;;;5046055;28;20216;-42
2023/12/23 03:27:24;;;;;;;1.40;0.47;;;7.50;99.90;;;;;;5027317;28;20190;-45
2023/12/23 03:29:49;;;;;;;0.33;0.33;;;7.50;99.90;;;;;;5029070;28;20638;-44
2023/12/23 03:32:16;;;;;;;1.87;0.30;;;7.50;99.90;;;;;;5038282;28;20270;-44
2023/12/23 03:34:41;;;;;;;0.83;0.40;;;7.50;99.90;;;;;;5030304;28;20178;-44
2023/12/23 03:37:07;;;;;;;0.70;0.50;;;7.50;99.90;;;;;;5050237;28;20200;-44
2023/12/23 03:39:33;;;;;;;0.93;0.30;;;7.60;99.90;;;;;;5039127;28;20226;-44
2023/12/23 03:41:59;;;;;;;0.37;0.37;;;7.60;99.90;;;;;;5040286;28;20198;-40
2023/12/23 03:44:24;;;;;;;1.13;0.40;;;7.60;99.90;;;;;;5043466;28;20272;-44
2023/12/23 03:46:50;;;;;;;1.23;0.40;;;7.60;99.90;;;;;;5022189;28;20196;-44
2023/12/23 03:49:17;;;;;;;1.13;0.30;;;7.60;99.90;;;;;;5035827;28;20188;-44
2023/12/23 03:51:43;;;;;;;0.70;0.30;;;7.60;99.90;;;;;;5041281;28;20288;-44
2023/12/23 03:54:08;;;;;;;0.57;0.40;;;7.60;99.90;;;;;;5054829;28;20716;-45
2023/12/23 03:56:34;;;;;;;1.47;0.40;;;7.60;99.90;;;;;;5055894;28;20185;-44
2023/12/23 03:59:00;;;;;;;0.40;0.40;;;7.50;99.90;;;;;;5039069;28;20280;-43
2023/12/23 04:01:26;;;;;;;0.37;0.37;;;7.50;99.90;;;;;;5036316;28;20297;-44
2023/12/23 04:03:52;;;;;;;1.07;0.40;;;7.50;99.90;;;;;;5023330;28;20221;-44
2023/12/23 04:06:18;;;;;;;0.43;0.30;;;7.50;99.90;;;;;;5025110;28;20208;-44
2023/12/23 04:08:43;;;;;;;0.40;0.40;;;7.50;99.90;;;;;;5037139;28;20181;-44
2023/12/23 04:11:09;;;;;;;1.30;0.60;;;7.50;99.90;;;;;;5029817;28;20235;-44
2023/12/23 04:13:37;;;;;;;0.70;0.30;;;7.60;99.90;;;;;;5025799;28;20182;-44
2023/12/23 04:16:04;;;;;;;0.70;0.40;;;7.60;99.90;;;;;;5031241;28;20196;-44
2023/12/23 04:18:30;;;;;;;0.40;0.30;;;7.60;99.90;;;;;;5035715;28;20185;-44
2023/12/23 04:20:56;;;;;;;0.27;0.27;;;7.60;99.90;;;;;;5029892;28;20181;-42
2023/12/23 04:23:22;;;;;;;1.70;0.40;;;7.60;99.90;;;;;;5037802;28;20197;-42
2023/12/23 04:25:48;;;;;;;1.90;0.50;;;7.70;99.90;;;;;;5032330;28;20213;-44
2023/12/23 04:28:15;;;;;;;0.40;0.40;;;7.70;99.90;;;;;;5023507;28;20268;-44
2023/12/23 04:30:42;;;;;;;1.40;0.50;;;7.70;99.90;;;;;;5035690;28;20265;-44
2023/12/23 04:33:08;;;;;;;0.30;0.30;;;7.70;99.90;;;;;;5026526;28;20275;-44
2023/12/23 04:35:35;;;;;;;0.60;0.30;;;7.60;99.90;;;;;;5030311;28;20652;-44
2023/12/23 04:38:01;;;;;;;0.60;0.40;;;7.60;99.90;;;;;;5026807;28;20200;-44
2023/12/23 04:40:26;;;;;;;0.50;0.30;;;7.60;99.90;;;;;;5037906;28;20638;-44
2023/12/23 04:42:52;;;;;;;0.50;0.40;;;7.50;99.90;;;;;;5034968;28;20324;-44
2023/12/23 04:45:18;;;;;;;0.57;0.40;;;7.50;99.90;;;;;;5051346;28;20235;-41
2023/12/23 04:47:44;;;;;;;0.30;0.30;;;7.50;99.90;;;;;;5018739;28;20177;-44
2023/12/23 04:50:10;;;;;;;0.37;0.37;;;7.40;99.90;;;;;;5032951;28;20178;-43
2023/12/23 04:52:36;;;;;;;0.40;0.40;;;7.40;99.90;;;;;;5038590;28;20275;-44
2023/12/23 04:55:05;;;;;;;0.60;0.47;;;7.40;99.90;;;;;;5044487;28;20189;-44
2023/12/23 04:57:32;;;;;;;0.40;0.40;;;7.40;99.90;;;;;;5035306;28;20273;-44
2023/12/23 04:59:58;;;;;;;0.77;0.70;;;7.30;99.90;;;;;;5018507;28;20186;-44
2023/12/23 05:02:24;;;;;;;0.60;0.50;;;7.30;99.90;;;;;;5036140;28;20208;-44
2023/12/23 05:04:50;;;;;;;1.00;0.80;;;7.30;99.90;;;;;;5046498;28;20294;-44
2023/12/23 05:07:15;;;;;;;1.43;0.60;;;7.30;99.90;;;;;;5034141;28;20177;-44
2023/12/23 05:09:41;;;;;;;0.73;0.53;;;7.30;99.90;;;;;;5024555;28;20230;-44
2023/12/23 05:12:07;;;;;;;1.47;0.73;;;7.20;99.90;;;;;;5037756;28;20201;-44
2023/12/23 05:14:33;;;;;;;0.30;0.30;;;7.20;99.90;;;;;;5038117;28;20189;-43
2023/12/23 05:16:59;;;;;;;0.30;0.30;;;7.20;99.90;;;;;;5045440;28;20181;-44
2023/12/23 05:19:25;;;;;;;0.67;0.60;;;7.20;99.90;;;;;;5029233;28;20181;-44
2023/12/23 05:21:51;;;;;;;1.23;0.40;;;7.20;99.90;;;;;;5031844;28;20212;-44
2023/12/23 05:24:17;;;;;;;1.20;0.40;;;7.20;99.90;;;;;;5031832;28;20177;-45
2023/12/23 05:26:43;;;;;;;0.90;0.67;;;7.20;99.90;;;;;;5032315;28;20225;-44
2023/12/23 05:29:09;;;;;;;0.80;0.70;;;7.10;99.90;;;;;;5037083;28;20181;-44
2023/12/23 05:31:34;;;;;;;2.07;1.30;;;7.10;99.90;;;;;;5033775;28;20204;-45
2023/12/23 05:34:00;;;;;;;2.57;1.50;;;7.10;99.90;;;;;;5032435;28;20260;-45
2023/12/23 05:36:26;;;;;;;2.13;0.90;;;7.10;99.90;;;;;;5028335;28;20189;-44
2023/12/23 05:38:52;;;;;;;1.50;1.20;;;7.10;99.90;;;;;;5049740;28;20196;-43
2023/12/23 05:41:17;;;;;;;0.50;0.50;;;7.10;99.90;;;;;;5039301;28;20195;-43
2023/12/23 05:43:43;;;;;;;0.80;0.50;;;7.20;99.90;;;;;;5025827;28;20190;-44
2023/12/23 05:46:09;;;;;;;1.03;0.50;;;7.20;99.90;;;;;;5041362;28;20212;-44
2023/12/23 05:48:35;;;;;;;1.17;0.70;;;7.20;99.90;;;;;;5034368;28;20189;-44
2023/12/23 05:51:01;;;;;;;0.57;0.30;;;7.20;99.90;;;;;;5056538;28;20291;-44
2023/12/23 05:53:27;;;;;;;0.30;0.30;;;7.20;99.90;;;;;;5053347;28;20177;-44
2023/12/23 05:55:53;;;;;;;0.50;0.20;;;7.20;99.90;;;;;;5031751;28;20261;-44
2023/12/23 05:58:18;;;;;;;0.33;0.27;;;7.20;99.90;;;;;;5041316;28;20193;-44
2023/12/23 06:00:45;;;;;;;0.77;0.60;;;7.30;99.90;;;;;;5040149;28;20197;-44
2023/12/23 06:03:10;;;;;;;1.17;0.80;;;7.30;99.90;;;;;;5031702;28;20198;-44
2023/12/23 06:05:36;;;;;;;0.43;0.43;;;7.30;99.90;;;;;;5053587;28;20661;-43
2023/12/23 06:08:04;;;;;;;0.73;0.40;;;7.30;99.90;;;;;;5041393;28;20184;-42
2023/12/23 06:10:29;;;;;;;0.50;0.50;;;7.30;99.90;;;;;;5039857;28;20276;-40
2023/12/23 06:12:55;;;;;;;0.70;0.53;;;7.30;99.90;;;;;;5058378;28;20284;-43
2023/12/23 06:15:21;;;;;;;0.87;0.40;;;7.30;99.90;;;;;;5034621;28;20675;-44
2023/12/23 06:17:48;;;;;;;0.57;0.40;;;7.30;99.90;;;;;;5038622;28;20276;-44
2023/12/23 06:20:14;;;;;;;0.50;0.30;;;7.30;99.90;;;;;;5020291;28;20182;-45
2023/12/23 06:22:40;;;;;;;0.50;0.50;;;7.30;99.90;;;;;;5031530;28;20201;-44
2023/12/23 06:25:06;;;;;;;1.40;0.60;;;7.30;99.90;;;;;;5032983;28;20292;-44
2023/12/23 06:27:32;;;;;;;0.73;0.53;;;7.30;99.90;;;;;;5029523;28;20194;-44
2023/12/23 06:29:57;;;;;;;0.60;0.47;;;7.30;99.90;;;;;;5034597;28;20192;-43
2023/12/23 06:32:23;;;;;;;0.50;0.50;;;7.30;99.90;;;;;;5031793;28;20199;-44
2023/12/23 06:34:49;;;;;;;0.67;0.40;;;7.30;99.90;;;;;;5037739;28;20185;-44
2023/12/23 06:37:15;;;;;;;0.93;0.40;;;7.30;99.90;;;;;;5055232;28;20265;-44
2023/12/23 06:39:41;;;;;;;0.67;0.50;;;7.30;99.90;;;;;;5042516;28;20193;-45
2023/12/23 06:42:07;;;;;;;1.10;0.53;;;7.30;99.90;;;;;;5042761;28;20208;-44
2023/12/23 06:44:32;;;;;;;0.70;0.50;;;7.30;99.90;;;;;;5037991;28;20293;-43
2023/12/23 06:46:58;;;;;;;0.93;0.60;;;7.30;99.90;;;;;;5029463;28;20235;-43
2023/12/23 06:49:24;;;;;;;0.60;0.47;;;7.30;99.90;;;;;;5067742;28;20184;-44
2023/12/23 06:51:50;;;;;;;0.40;0.40;;;7.30;99.90;;;;;;5052861;28;20225;-44
2023/12/23 06:54:16;;;;;;;0.40;0.40;;;7.30;99.90;;;;;;5042806;28;20212;-43
2023/12/23 06:56:42;;;;;;;0.70;0.50;;;7.30;99.90;;;;;;5025116;28;20182;-43
2023/12/23 06:59:09;;;;;;;0.97;0.30;;;7.20;99.90;;;;;;5031085;28;20238;-44
2023/12/23 07:01:37;;;;;;;0.53;0.47;;;7.20;99.90;;;;;;5042585;28;20293;-45
2023/12/23 07:04:04;;;;;;;0.97;0.40;;;7.20;99.90;;;;;;5038720;28;20192;-45
2023/12/23 07:06:31;;;;;;;0.60;0.60;;;7.30;99.90;;;;;;5033045;28;20239;-44
2023/12/23 07:08:56;;;;;;;0.33;0.30;;;7.30;99.90;;;;;;5033692;28;20684;-42
2023/12/23 07:11:22;;;;;;;1.17;0.50;;;7.40;99.90;;;;;;5028937;28;20217;-44
2023/12/23 07:13:48;;;;;;;2.70;0.70;;;7.40;99.90;;;;;;5031902;28;20197;-45
2023/12/23 07:16:15;;;;;;;1.03;0.70;;;7.40;99.90;;;;;;5028967;28;20189;-44
2023/12/23 07:18:41;;;;;;;2.30;0.60;;;7.40;99.90;;;;;;5025533;28;20642;-44
2023/12/23 07:21:06;;;;;;;0.60;0.50;;;7.40;99.90;;;;;;5050212;28;20241;-44
2023/12/23 07:23:32;;;;;;;1.30;0.50;;;7.40;99.90;;;;;;5029277;28;20272;-42
2023/12/23 07:25:58;;;;;;;0.33;0.33;;;7.40;99.90;;;;;;5039579;28;20271;-44
2023/12/23 07:28:24;;;;;;;0.57;0.50;;;7.30;99.90;;;;;;5035354;28;20185;-44
2023/12/23 07:30:50;;;;;;;0.80;0.40;;;7.40;99.90;;;;;;5037186;28;20181;-44
2023/12/23 07:33:15;;;;;;;1.80;0.40;;;7.40;99.90;;;;;;5029529;28;20202;-44
2023/12/23 07:35:42;;;;;;;1.03;0.33;;;7.40;99.90;;;;;;5036059;28;20188;-42
2023/12/23 07:38:08;;;;;;;1.03;0.40;;;7.30;99.90;;;;;;5025316;28;20196;-44
2023/12/23 07:40:35;;;;;;;1.37;0.50;;;7.30;99.90;;;;;;5027785;28;20186;-43
2023/12/23 07:43:01;;;;;;;0.47;0.47;;;7.30;99.90;;;;;;5060514;28;20296;-44
2023/12/23 07:45:31;;;;;;;0.60;0.30;;;7.30;99.90;;;;;;5027702;28;20209;-37
2023/12/23 07:47:56;;;;;;;0.37;0.37;;;7.30;99.90;;;;;;5036345;28;20182;-44
2023/12/23 07:50:22;;;;;;;0.60;0.60;;;7.30;99.90;;;;;;5037673;28;20180;-44
2023/12/23 07:52:49;;;;;;;0.50;0.50;;;7.30;99.90;;;;;;5040424;28;20201;-44
2023/12/23 07:55:15;;;;;;;0.70;0.40;;;7.30;99.90;;;;;;5038820;28;20185;-44
2023/12/23 07:57:45;;;;;;;0.30;0.30;;;7.40;99.90;;;;;;5040238;28;20688;-44
2023/12/23 08:00:11;;;;;;;0.47;0.47;;;7.40;99.90;;;;;;5031256;28;20276;-44
2023/12/23 08:02:37;;;;;;;0.50;0.50;;;7.40;99.90;;;;;;5044509;28;20269;-40
2023/12/23 08:05:05;;;;;;;0.60;0.50;;;7.30;99.90;;;;;;5035738;28;20284;-43
2023/12/23 08:07:31;;;;;;;0.43;0.30;;;7.30;99.90;;;;;;5027208;28;20173;-43
2023/12/23 08:09:58;;;;;;;0.67;0.50;;;7.30;99.90;;;;;;5040893;28;20260;-44
2023/12/23 08:12:24;;;;;;;0.50;0.50;;;7.30;99.90;;;;;;5031269;28;20233;-44
2023/12/23 08:14:50;;;;;;;0.30;0.30;;;7.30;99.90;;;;;;5045964;28;20221;-44
2023/12/23 08:17:15;;;;;;;3.00;0.50;;;7.30;99.90;;;;;;5018895;28;20181;-41
2023/12/23 08:19:41;;;;;;;0.40;0.40;;;7.30;99.90;;;;;;5020561;28;20209;-44
2023/12/23 08:22:07;;;;;;;0.60;0.60;;;7.40;99.90;;;;;;5028140;28;20205;-44
2023/12/23 08:24:33;;;;;;;0.40;0.40;;;7.30;99.90;;;;;;5051105;28;20646;-41
2023/12/23 08:27:00;;;;;;;0.70;0.40;;;7.40;99.90;;;;;;5040387;28;20182;-44
2023/12/23 08:29:26;;;;;;;0.57;0.40;;;7.40;99.90;;;;;;5018454;28;20177;-44
2023/12/23 08:31:52;;;;;;;0.30;0.30;;;7.40;99.90;;;;;;5035425;28;20263;-42
2023/12/23 08:34:18;;;;;;;0.70;0.30;;;7.40;99.90;;;;;;5029446;28;20178;-44
2023/12/23 08:36:44;;;;;;;1.40;0.70;;;7.50;99.90;;;;;;5037967;28;20189;-44
2023/12/23 08:39:10;;;;;;;1.13;0.50;;;7.50;99.90;;;;;;5019700;28;20178;-44
2023/12/23 08:41:36;;;;;;;0.83;0.70;;;7.50;99.90;;;;;;5035891;28;20307;-44
2023/12/23 08:44:05;;;;;;;0.73;0.70;;;7.50;99.90;;;;;;5038797;28;20204;-39
2023/12/23 08:46:31;;;;;;;1.33;0.90;;;7.50;99.90;;;;;;5050505;28;20212;-39
2023/12/23 08:48:59;;;;;;;0.80;0.80;;;7.50;99.90;;;;;;5046558;28;20178;-38
2023/12/23 08:51:31;;;;;;;1.90;1.23;;;7.50;99.90;;;;;;5019442;28;20228;-36
2023/12/23 08:53:58;;;;;;;1.00;1.00;;;7.50;99.90;;;;;;5046438;28;20177;-38
2023/12/23 08:56:24;;;;;;;1.10;0.90;;;7.50;99.90;;;;;;5028525;28;20224;-40
2023/12/23 08:58:49;;;;;;;0.53;0.40;;;7.50;99.90;;;;;;5025980;28;20193;-38
2023/12/23 09:01:15;;;;;;;0.43;0.43;;;7.50;99.90;;;;;;5037899;28;20185;-37
2023/12/23 09:03:41;;;;;;;0.30;0.30;;;7.50;99.90;;;;;;5036294;28;20181;-39
2023/12/23 09:06:07;;;;;;;1.47;0.60;;;7.50;99.90;;;;;;5047533;28;20208;-40
2023/12/23 09:08:34;;;;;;;0.53;0.53;;;7.50;99.90;;;;;;5042200;28;20177;-38
2023/12/23 09:11:03;;;;;;;0.50;0.40;;;7.50;99.90;;;;;;5038501;28;20174;-36
2023/12/23 09:13:29;;;;;;;0.50;0.50;;;7.50;99.90;;;;;;5037162;28;20197;-39
2023/12/23 09:15:55;;;;;;;0.80;0.40;;;7.50;99.90;;;;;;5034705;28;20330;-35
2023/12/23 09:18:21;;;;;;;0.70;0.57;;;7.50;99.90;;;;;;5038171;28;20201;-46
2023/12/23 09:20:47;;;;;;;1.47;0.90;;;7.50;99.90;;;;;;5048592;28;20189;-40
2023/12/23 09:23:13;;;;;;;1.43;0.60;;;7.50;99.90;;;;;;5062387;28;20205;-38
2023/12/23 09:25:39;;;;;;;0.83;0.60;;;7.50;99.90;;;;;;5047608;28;20208;-41
2023/12/23 09:28:05;;;;;;;0.43;0.43;;;7.50;99.90;;;;;;5029109;28;20174;-35
2023/12/23 09:30:31;;;;;;;0.90;0.70;;;7.50;99.90;;;;;;5034425;28;20170;-36
2023/12/23 09:32:57;;;;;;;0.60;0.60;;;7.60;99.90;;;;;;5047311;28;20210;-38
2023/12/23 09:35:23;;;;;;;1.30;0.40;;;7.50;99.90;;;;;;5038071;28;20189;-36
2023/12/23 09:37:50;;;;;;;2.87;1.70;;;7.60;99.90;;;;;;5036083;28;20189;-44
2023/12/23 09:40:16;;;;;;;1.90;1.40;;;7.60;99.90;;;;;;5041359;28;20186;-37
2023/12/23 09:42:42;;;;;;;2.87;1.63;;;7.60;99.90;;;;;;5039639;28;20213;-36
2023/12/23 09:45:12;;;;;;;2.13;1.57;;;7.60;99.90;;;;;;5024576;28;20201;-34
2023/12/23 09:47:38;;;;;;;3.53;2.13;;;7.60;99.90;;;;;;5065676;28;20177;-38
2023/12/23 09:50:04;;;;;;;5.20;2.90;;;7.60;99.90;;;;;;5033701;28;20204;-38
2023/12/23 09:52:31;;;;;;;5.60;3.40;;;7.60;99.90;;;;;;5028968;28;20250;-36
2023/12/23 09:54:58;;;;;;;2.90;1.80;;;7.60;99.90;;;;;;5040933;28;20208;-37
2023/12/23 09:57:24;;;;;;;3.30;1.17;;;7.60;99.90;;;;;;5031248;28;20216;-36
2023/12/23 09:59:54;;;;;;;3.60;2.33;;;7.60;99.90;;;;;;5033683;28;20181;-38
2023/12/23 10:02:20;;;;;;;7.70;4.30;;;7.60;99.90;;;;;;5028629;28;20197;-39
2023/12/23 10:04:45;;;;;;;0.90;0.90;;;7.60;99.90;;;;;;5031261;28;20213;-38
2023/12/23 10:07:12;;;;;;;2.27;1.40;;;7.60;99.90;;;;;;5041819;28;20191;-38
2023/12/23 10:09:38;;;;;;;0.50;0.50;;;7.60;99.90;;;;;;5036739;28;20244;-39
2023/12/23 10:12:04;;;;;;;1.90;1.33;;;7.60;99.90;;;;;;5037251;28;20285;-39
2023/12/23 10:14:30;;;;;;;2.63;1.37;;;7.70;99.90;;;;;;5046886;28;20178;-39
2023/12/23 10:16:55;;;;;;;2.20;1.17;;;7.70;99.90;;;;;;5040222;28;20194;-35
2023/12/23 10:19:21;;;;;;;1.07;0.77;;;7.70;99.90;;;;;;5029791;28;20200;-39
2023/12/23 10:21:48;;;;;;;0.90;0.83;;;7.70;99.90;;;;;;5033805;28;20201;-41
2023/12/23 10:24:14;;;;;;;1.80;0.97;;;7.70;99.90;;;;;;5064399;28;20205;-42
2023/12/23 10:26:41;;;;;;;2.43;1.43;;;7.70;99.90;;;;;;5061084;28;20237;-43
2023/12/23 10:29:09;;;;;;;4.77;2.97;;;7.70;99.90;;;;;;5032951;28;20173;-43
2023/12/23 10:31:36;;;;;;;0.83;0.80;;;7.70;99.90;;;;;;5060251;28;20200;-42
2023/12/23 10:34:12;;;;;;;1.13;0.77;;;7.70;99.90;;;;;;5043118;28;20205;-42
2023/12/23 10:36:42;;;;;;;0.80;0.80;;;7.70;99.90;;;;;;5035444;28;20182;-42
2023/12/23 10:39:24;;;;;;;0.70;0.70;;;7.70;99.90;;;;;;5039552;28;20177;-43
2023/12/23 10:42:03;;;;;;;0.70;0.70;;;7.70;99.90;;;;;;5032201;28;20288;-42
2023/12/23 10:44:30;;;;;;;1.60;1.20;;;7.70;99.90;;;;;;5033358;28;20638;-42
2023/12/23 10:46:57;;;;;;;0.70;0.70;;;7.70;99.90;;;;;;5043095;28;20182;-42
2023/12/23 10:49:24;;;;;;;3.27;2.13;;;7.70;99.90;;;;;;5020803;28;20173;-42
2023/12/23 10:51:51;;;;;;;1.23;1.10;;;7.70;99.90;;;;;;5020123;28;20202;-42
2023/12/23 10:54:18;;;;;;;1.00;0.90;;;7.70;99.90;;;;;;5040845;28;20188;-42
2023/12/23 10:56:45;;;;;;;2.70;1.63;;;7.70;99.90;;;;;;5049432;28;20260;-42
2023/12/23 10:59:11;;;;;;;0.53;0.53;;;7.70;99.90;;;;;;5046184;28;20270;-43
2023/12/23 11:01:39;;;;;;;1.03;0.93;;;7.70;99.90;;;;;;5020398;28;20201;-42
2023/12/23 11:04:05;;;;;;;0.80;0.80;;;7.70;99.90;;;;;;5028564;28;20178;-42
2023/12/23 11:06:36;;;;;;;0.50;0.50;;;7.70;99.90;;;;;;5044576;28;20202;-43
2023/12/23 11:09:04;;;;;;;2.10;1.00;;;7.70;99.90;;;;;;5023842;28;20182;-42
2023/12/23 11:11:31;;;;;;;0.60;0.60;;;7.70;99.90;;;;;;5050018;28;20197;-42
2023/12/23 11:13:57;;;;;;;1.23;0.40;;;7.70;99.90;;;;;;5049632;28;20182;-42
2023/12/23 11:16:24;;;;;;;1.20;0.50;;;7.70;99.90;;;;;;5027599;28;20189;-41
2023/12/23 11:18:54;;;;;;;1.27;1.00;;;7.70;99.90;;;;;;5042032;28;20240;-42
2023/12/23 11:21:20;;;;;;;1.50;0.70;;;7.70;99.90;;;;;;5030146;28;20206;-42
2023/12/23 11:23:47;;;;;;;0.50;0.50;;;7.70;99.90;;;;;;5032180;28;20178;-42
2023/12/23 11:26:42;;;;;;;0.57;0.57;;;7.60;99.90;;;;;;5031054;28;20202;-43
2023/12/23 11:29:13;;;;;;;0.50;0.50;;;7.60;99.90;;;;;;5022451;28;20182;-42
2023/12/23 11:31:39;;;;;;;0.63;0.60;;;7.70;99.90;;;;;;5033627;28;20202;-43
2023/12/23 11:34:16;;;;;;;1.53;1.20;;;7.70;99.90;;;;;;5031261;28;20200;-42
2023/12/23 11:36:43;;;;;;;1.30;0.90;;;7.60;99.90;;;;;;5039472;28;20189;-41
2023/12/23 11:39:11;;;;;;;1.57;1.00;;;7.60;99.90;;;;;;5041873;28;20252;-37
2023/12/23 11:41:40;;;;;;;0.53;0.50;;;7.60;99.90;;;;;;5039739;28;20206;-44
2023/12/23 11:44:06;;;;;;;1.03;0.73;;;7.60;99.90;;;;;;5049178;28;20238;-44
2023/12/23 11:46:34;;;;;;;0.60;0.60;;;7.60;99.90;;;;;;5051602;28;20212;-44
2023/12/23 11:49:00;;;;;;;1.07;0.97;;;7.70;99.90;;;;;;5039126;28;20181;-42
2023/12/23 11:51:26;;;;;;;0.97;0.70;;;7.60;99.90;;;;;;5058216;28;20228;-44
2023/12/23 11:53:53;;;;;;;0.93;0.73;;;7.70;99.90;;;;;;5045140;28;20185;-43
2023/12/23 11:56:19;;;;;;;22.83;11.57;;;7.70;99.90;;;;;;5034824;28;20189;-44
2023/12/23 11:58:45;;;;;;;0.50;0.50;;;7.70;99.90;;;;;;5046682;28;20189;-43
2023/12/23 12:01:11;;;;;;;0.80;0.80;;;7.80;99.90;;;;;;5021817;28;20185;-42
2023/12/23 12:03:37;;;;;;;0.80;0.73;;;7.70;99.90;;;;;;5035715;28;20178;-42
2023/12/23 12:06:03;;;;;;;0.90;0.73;;;7.80;99.90;;;;;;5039633;28;20205;-42
2023/12/23 12:08:29;;;;;;;1.13;0.50;;;7.80;99.90;;;;;;5041313;28;20182;-43
2023/12/23 12:10:56;;;;;;;2.20;0.60;;;7.80;99.90;;;;;;5035184;28;20186;-42
2023/12/23 12:13:28;;;;;;;1.70;0.80;;;7.80;99.90;;;;;;5029811;28;20202;-42
2023/12/23 12:15:54;;;;;;;0.67;0.50;;;7.80;99.90;;;;;;5038453;28;20197;-43
2023/12/23 12:18:20;;;;;;;1.33;0.67;;;7.90;99.90;;;;;;5038720;28;20276;-42
2023/12/23 12:20:46;;;;;;;0.60;0.50;;;7.90;99.90;;;;;;5029314;28;20178;-43
2023/12/23 12:23:14;;;;;;;0.43;0.43;;;7.90;99.90;;;;;;5037595;28;20393;-43
2023/12/23 12:25:50;;;;;;;0.60;0.60;;;7.90;99.90;;;;;;5030678;28;20214;-42
2023/12/23 12:28:16;;;;;;;0.67;0.60;;;8.00;99.90;;;;;;5042932;28;20264;-42
2023/12/23 12:30:44;;;;;;;0.97;0.80;;;8.00;99.90;;;;;;5037142;28;20174;-42
2023/12/23 12:33:10;;;;;;;1.10;1.00;;;8.00;99.90;;;;;;5033165;28;20252;-42
2023/12/23 12:35:36;;;;;;;1.47;1.20;;;8.00;99.90;;;;;;5041710;28;20174;-42
2023/12/23 12:38:03;;;;;;;1.10;0.80;;;8.00;99.90;;;;;;5031333;28;20638;-43
2023/12/23 12:40:34;;;;;;;0.93;0.80;;;8.00;99.90;;;;;;5029410;28;20190;-42
2023/12/23 12:43:05;;;;;;;2.20;2.00;;;8.00;99.90;;;;;;5027517;28;20220;-42
2023/12/23 12:45:38;;;;;;;0.50;0.50;;;8.00;99.90;;;;;;5036197;28;20263;-43
2023/12/23 12:48:12;;;;;;;1.83;0.90;;;8.00;99.90;;;;;;5052397;28;20181;-42
2023/12/23 12:50:44;;;;;;;0.50;0.40;;;8.00;99.90;;;;;;5034681;28;20178;-42
2023/12/23 12:53:10;;;;;;;1.13;0.97;;;8.00;99.90;;;;;;5021144;28;20207;-43
2023/12/23 12:55:36;;;;;;;0.60;0.60;;;8.00;99.90;;;;;;5040874;28;20209;-43